Time;durP1;ratioP1;P1;durP2;ratioP2;P2;SDS_P1;SDS_P2;PMS_P1;PMS_P2;Temp;Humidity;BMP_temperature;BMP_pressure;BME280_temperature;BME280_humidity;BME280_pressure;Samples;Min_cycle;Max_cycle;Signal;HPM_P1;HPM_P2
2023/04/20 00:01:47;;;;;;;4.68;3.63;;;7.80;99.90;;;;;;5019225;28;20044;-91
2023/04/20 00:04:14;;;;;;;11.43;3.50;;;7.70;99.90;;;;;;5024854;28;20033;-93
2023/04/20 00:06:42;;;;;;;5.50;3.45;;;7.70;99.90;;;;;;5018923;28;20260;-93
2023/04/20 00:09:09;;;;;;;6.07;3.00;;;7.70;27.20;;;;;;5040710;28;20723;-92
2023/04/20 00:11:35;;;;;;;7.60;2.92;;;7.70;1.30;;;;;;5033862;28;20384;-91
2023/04/20 00:14:01;;;;;;;5.75;3.65;;;7.70;99.90;;;;;;5023044;28;20052;-92
2023/04/20 00:16:27;;;;;;;4.22;2.95;;;7.80;99.90;;;;;;5020124;28;20156;-93
2023/04/20 00:18:52;;;;;;;6.60;2.92;;;7.80;99.90;;;;;;5036108;28;20052;-95
2023/04/20 00:21:22;;;;;;;7.88;3.33;;;7.80;99.90;;;;;;5023936;28;20123;-93
2023/04/20 00:23:49;;;;;;;5.43;2.67;;;7.80;99.90;;;;;;5038401;28;20260;-93
2023/04/20 00:26:15;;;;;;;6.32;2.80;;;7.90;1.00;;;;;;5035869;28;20590;-93
2023/04/20 00:28:42;;;;;;;6.80;3.10;;;7.80;99.90;;;;;;5020194;28;20040;-93
2023/04/20 00:31:10;;;;;;;5.05;2.78;;;7.90;99.90;;;;;;5019531;28;20452;-92
2023/04/20 00:33:36;;;;;;;4.93;2.55;;;7.90;99.90;;;;;;5032448;28;20045;-92
2023/04/20 00:36:02;;;;;;;5.22;2.83;;;7.90;77.60;;;;;;5038602;28;20091;-91
2023/04/20 00:38:27;;;;;;;5.95;2.80;;;7.90;99.90;;;;;;5019844;28;20102;-92
2023/04/20 00:40:56;;;;;;;5.72;2.72;;;7.90;98.40;;;;;;5018693;28;20037;-92
2023/04/20 00:43:22;;;;;;;5.20;2.45;;;8.10;1.00;;;;;;5020991;28;20041;-92
2023/04/20 00:45:53;;;;;;;4.05;2.55;;;8.10;99.90;;;;;;5020048;28;20563;-92
2023/04/20 00:48:19;;;;;;;5.40;2.70;;;8.10;99.90;;;;;;5022516;28;20047;-93
2023/04/20 00:50:47;;;;;;;6.38;2.33;;;8.20;1.00;;;;;;5020739;28;20079;-92
2023/04/20 00:53:13;;;;;;;6.68;2.70;;;8.20;99.90;;;;;;5023639;28;20047;-92
2023/04/20 00:55:42;;;;;;;3.95;2.60;;;8.30;1.00;;;;;;5027513;28;20048;-93
2023/04/20 00:58:08;;;;;;;6.97;2.72;;;8.30;99.90;;;;;;5032321;28;20465;-92
2023/04/20 01:00:34;;;;;;;3.25;2.30;;;8.30;1.00;;;;;;5036694;28;20115;-93
2023/04/20 01:03:00;;;;;;;8.93;3.00;;;8.30;99.90;;;;;;5019465;28;20068;-93
2023/04/20 01:05:25;;;;;;;3.60;2.30;;;8.30;73.00;;;;;;5019297;28;20481;-93
2023/04/20 01:07:54;;;;;;;4.68;2.75;;;8.30;1.00;;;;;;5017545;28;20044;-92
2023/04/20 01:10:20;;;;;;;8.88;2.80;;;8.30;16.70;;;;;;5024596;28;20036;-93
2023/04/20 01:12:45;;;;;;;4.95;2.85;;;8.30;99.90;;;;;;5019808;28;20045;-93
2023/04/20 01:15:11;;;;;;;4.80;2.67;;;8.30;1.00;;;;;;5018758;28;20299;-93
2023/04/20 01:17:38;;;;;;;4.85;2.60;;;8.30;1.00;;;;;;5017000;28;20044;-92
2023/04/20 01:20:08;;;;;;;5.18;2.42;;;8.30;1.00;;;;;;5018475;28;20574;-94
2023/04/20 01:22:48;;;;;;;5.85;2.63;;;8.30;40.50;;;;;;5020418;28;20060;-93
2023/04/20 01:25:15;;;;;;;4.97;2.25;;;8.30;99.90;;;;;;5019933;28;20036;-92
2023/04/20 01:27:40;;;;;;;4.93;2.40;;;8.30;99.90;;;;;;5018020;28;20052;-93
2023/04/20 01:30:07;;;;;;;4.55;2.60;;;8.30;99.90;;;;;;5038834;28;20032;-93
2023/04/20 01:32:33;;;;;;;3.83;2.30;;;8.40;99.90;;;;;;5033846;28;20044;-92
2023/04/20 01:35:00;;;;;;;4.80;2.40;;;8.40;3.90;;;;;;5022808;28;20041;-92
2023/04/20 01:37:26;;;;;;;5.45;2.53;;;8.30;99.90;;;;;;5019921;28;20041;-93
2023/04/20 01:39:52;;;;;;;4.68;2.67;;;8.20;1.00;;;;;;5019606;28;20642;-92
2023/04/20 01:42:17;;;;;;;5.50;2.65;;;8.20;99.90;;;;;;5023402;28;20119;-93
2023/04/20 01:44:46;;;;;;;4.55;2.65;;;8.10;99.90;;;;;;5022596;28;20045;-91
2023/04/20 01:47:12;;;;;;;5.45;2.60;;;8.10;1.00;;;;;;5014581;28;20499;-92
2023/04/20 01:49:38;;;;;;;7.53;2.63;;;8.00;99.90;;;;;;5037383;28;20330;-92
2023/04/20 01:52:03;;;;;;;4.35;2.60;;;8.00;1.00;;;;;;5024381;28;20041;-93
2023/04/20 01:54:29;;;;;;;5.57;3.03;;;7.90;99.90;;;;;;5056511;28;20586;-91
2023/04/20 01:56:55;;;;;;;6.72;2.63;;;7.80;1.00;;;;;;5022361;28;20200;-93
2023/04/20 01:59:20;;;;;;;6.47;3.17;;;7.80;14.20;;;;;;5022147;28;20488;-93
2023/04/20 02:01:46;;;;;;;5.88;2.88;;;7.80;99.90;;;;;;5040946;28;20140;-92
2023/04/20 02:04:15;;;;;;;7.15;2.70;;;7.70;99.90;;;;;;5020071;28;20353;-91
2023/04/20 02:06:40;;;;;;;6.18;2.35;;;7.60;99.90;;;;;;5034615;28;20075;-91
2023/04/20 02:09:08;;;;;;;5.28;2.42;;;7.60;99.90;;;;;;5025279;28;20376;-92
2023/04/20 02:11:34;;;;;;;3.63;2.42;;;7.60;99.90;;;;;;5033629;28;20045;-93
2023/04/20 02:13:59;;;;;;;6.00;2.70;;;7.50;99.90;;;;;;5023058;28;20614;-90
2023/04/20 02:16:27;;;;;;;4.50;2.63;;;7.30;99.90;;;;;;5016149;28;20614;-92
2023/04/20 02:18:54;;;;;;;6.10;2.72;;;7.40;99.90;;;;;;5038318;28;20072;-92
2023/04/20 02:21:20;;;;;;;7.65;2.35;;;7.40;99.90;;;;;;5021473;28;20175;-92
2023/04/20 02:23:45;;;;;;;6.85;2.63;;;7.50;99.90;;;;;;5021015;28;20231;-92
2023/04/20 02:26:11;;;;;;;6.28;2.90;;;7.50;99.90;;;;;;5035833;28;20045;-92
2023/04/20 02:28:37;;;;;;;7.97;2.83;;;7.50;99.90;;;;;;5022298;28;20512;-94
2023/04/20 02:31:02;;;;;;;5.65;2.60;;;7.50;99.90;;;;;;5019172;28;20033;-93
2023/04/20 02:33:28;;;;;;;4.32;2.58;;;7.50;99.90;;;;;;5014447;28;20033;-90
2023/04/20 02:35:54;;;;;;;7.47;2.63;;;7.50;99.90;;;;;;5037282;28;20033;-93
2023/04/20 02:38:22;;;;;;;6.85;3.15;;;7.50;99.90;;;;;;5019732;28;20048;-91
2023/04/20 02:40:48;;;;;;;5.88;3.03;;;7.60;99.90;;;;;;5015370;28;20438;-93
2023/04/20 02:43:14;;;;;;;6.70;2.90;;;7.70;99.90;;;;;;5037563;28;20098;-90
2023/04/20 02:45:40;;;;;;;7.82;3.72;;;7.70;99.90;;;;;;5036083;28;20045;-92
2023/04/20 02:48:06;;;;;;;4.72;2.47;;;7.70;99.90;;;;;;5032853;28;20158;-92
2023/04/20 02:50:32;;;;;;;6.07;2.47;;;7.80;99.90;;;;;;5019274;28;20438;-94
2023/04/20 02:52:57;;;;;;;11.23;2.65;;;7.80;99.90;;;;;;5024381;28;20068;-92
2023/04/20 02:55:23;;;;;;;5.55;3.17;;;7.90;99.90;;;;;;5037832;28;20036;-93
2023/04/20 02:57:52;;;;;;;5.82;2.40;;;7.80;99.90;;;;;;5021926;28;20064;-93
2023/04/20 03:00:18;;;;;;;5.45;3.25;;;7.90;99.90;;;;;;5035902;28;20476;-93
2023/04/20 03:02:43;;;;;;;6.32;3.00;;;7.90;99.90;;;;;;5035172;28;20045;-94
2023/04/20 03:05:09;;;;;;;5.85;2.55;;;8.00;1.00;;;;;;5040597;28;20098;-92
2023/04/20 03:07:34;;;;;;;5.00;2.83;;;8.00;1.00;;;;;;5018333;28;20140;-93
2023/04/20 03:10:00;;;;;;;8.23;2.92;;;8.10;1.00;;;;;;5019115;28;20037;-92
2023/04/20 03:12:26;;;;;;;5.47;2.50;;;8.20;1.00;;;;;;5024030;28;20111;-92
2023/04/20 03:14:54;;;;;;;5.45;2.58;;;8.20;99.90;;;;;;5038073;28;20037;-93
2023/04/20 03:17:20;;;;;;;4.22;2.53;;;8.20;99.90;;;;;;5017145;28;20205;-91
2023/04/20 03:19:46;;;;;;;4.03;2.63;;;8.20;44.40;;;;;;5017602;28;20055;-93
2023/04/20 03:22:11;;;;;;;5.00;2.85;;;8.20;1.00;;;;;;5022864;28;20040;-93
2023/04/20 03:24:37;;;;;;;7.47;2.60;;;8.20;1.00;;;;;;5033638;28;20041;-93
2023/04/20 03:27:03;;;;;;;10.40;2.95;;;8.20;1.00;;;;;;5018924;28;20190;-93
2023/04/20 03:29:28;;;;;;;5.07;2.83;;;8.20;1.00;;;;;;5025477;28;20107;-92
2023/04/20 03:31:54;;;;;;;6.75;2.65;;;8.20;1.00;;;;;;5020343;28;20040;-93
2023/04/20 03:34:23;;;;;;;4.60;2.60;;;8.20;99.90;;;;;;5019322;28;20471;-92
2023/04/20 03:36:50;;;;;;;6.50;2.78;;;8.30;99.90;;;;;;5020498;28;20065;-92
2023/04/20 03:39:16;;;;;;;5.18;2.65;;;8.30;99.90;;;;;;5021424;28;20047;-94
2023/04/20 03:41:41;;;;;;;8.77;2.90;;;8.30;99.90;;;;;;5023254;28;20041;-92
2023/04/20 03:44:07;;;;;;;5.85;2.70;;;8.30;99.90;;;;;;5021657;28;20480;-91
2023/04/20 03:46:33;;;;;;;4.90;2.70;;;8.30;1.00;;;;;;5022451;28;20045;-93
2023/04/20 03:48:58;;;;;;;4.38;2.33;;;8.30;1.00;;;;;;5019164;28;20040;-93
2023/04/20 03:51:27;;;;;;;3.85;2.60;;;8.40;99.90;;;;;;5026029;28;20425;-92
2023/04/20 03:53:58;;;;;;;6.20;3.28;;;8.30;99.90;;;;;;5028246;28;20503;-91
2023/04/20 03:56:26;;;;;;;5.45;2.65;;;8.30;99.90;;;;;;5039916;28;20083;-92
2023/04/20 03:58:54;;;;;;;4.60;2.63;;;8.30;99.90;;;;;;5038590;28;20063;-92
2023/04/20 04:01:20;;;;;;;3.30;2.72;;;8.30;42.40;;;;;;5035657;28;20334;-92
2023/04/20 04:03:46;;;;;;;3.03;2.50;;;8.40;1.00;;;;;;5026376;28;20032;-92
2023/04/20 04:06:11;;;;;;;5.15;2.45;;;8.30;99.90;;;;;;5036014;28;20491;-93
2023/04/20 04:08:37;;;;;;;6.03;2.85;;;8.40;1.00;;;;;;5061997;28;20033;-91
2023/04/20 04:11:02;;;;;;;3.40;2.38;;;8.40;99.90;;;;;;5023683;28;20041;-92
2023/04/20 04:13:28;;;;;;;5.22;2.55;;;8.40;99.90;;;;;;5021943;28;20053;-92
2023/04/20 04:15:55;;;;;;;6.38;2.88;;;8.40;99.90;;;;;;5024306;28;20174;-92
2023/04/20 04:18:21;;;;;;;3.95;2.10;;;8.30;99.90;;;;;;5023027;28;20399;-91
2023/04/20 04:20:47;;;;;;;4.25;2.45;;;8.30;55.30;;;;;;5022498;28;20079;-92
2023/04/20 04:23:12;;;;;;;4.63;2.28;;;8.30;89.30;;;;;;5020782;28;20076;-93
2023/04/20 04:25:39;;;;;;;6.60;2.38;;;8.20;48.30;;;;;;5035672;28;20219;-91
2023/04/20 04:28:06;;;;;;;7.97;2.35;;;8.20;1.00;;;;;;5024868;28;20238;-92
2023/04/20 04:30:31;;;;;;;6.28;2.50;;;8.30;1.00;;;;;;5040702;28;20048;-91
2023/04/20 04:32:58;;;;;;;4.63;2.25;;;8.20;1.00;;;;;;5020076;28;20036;-93
2023/04/20 04:35:29;;;;;;;7.00;2.55;;;8.20;1.00;;;;;;5022750;28;20404;-92
2023/04/20 04:37:54;;;;;;;6.63;2.33;;;8.20;1.00;;;;;;5023661;28;20583;-92
2023/04/20 04:40:20;;;;;;;4.00;2.17;;;8.20;1.00;;;;;;5039742;28;20336;-91
2023/04/20 04:42:47;;;;;;;7.43;2.40;;;8.20;1.00;;;;;;5016910;28;20041;-91
2023/04/20 04:45:13;;;;;;;5.95;2.20;;;8.20;1.00;;;;;;5019698;28;20048;-92
2023/04/20 04:47:42;;;;;;;3.08;2.30;;;8.20;1.00;;;;;;5036149;28;20730;-93
2023/04/20 04:50:09;;;;;;;5.43;2.30;;;8.20;1.00;;;;;;5024663;28;20319;-90
2023/04/20 04:52:35;;;;;;;3.65;2.15;;;8.20;1.00;;;;;;5025545;28;20112;-91
2023/04/20 04:55:01;;;;;;;5.28;2.40;;;8.20;1.00;;;;;;5040453;28;20140;-92
2023/04/20 04:57:27;;;;;;;5.65;2.20;;;8.20;1.00;;;;;;5036802;28;20033;-92
2023/04/20 04:59:53;;;;;;;5.82;2.20;;;8.20;1.00;;;;;;5035510;28;20048;-92
2023/04/20 05:02:19;;;;;;;4.40;2.30;;;8.20;71.00;;;;;;5020702;28;20045;-93
2023/04/20 05:04:45;;;;;;;6.05;2.40;;;8.10;99.90;;;;;;5023225;28;20045;-94
2023/04/20 05:07:12;;;;;;;7.40;2.63;;;8.00;1.00;;;;;;5022237;28;20528;-92
2023/04/20 05:09:38;;;;;;;4.53;2.63;;;7.80;99.90;;;;;;5022801;28;20037;-92
2023/04/20 05:12:05;;;;;;;5.05;2.63;;;7.80;99.90;;;;;;5037270;28;20045;-91
2023/04/20 05:14:31;;;;;;;5.68;2.80;;;7.70;99.90;;;;;;5020416;28;20038;-93
2023/04/20 05:16:59;;;;;;;6.68;2.67;;;7.60;99.90;;;;;;5022579;28;20128;-92
2023/04/20 05:19:25;;;;;;;8.10;2.80;;;7.60;99.90;;;;;;5023105;28;20049;-92
2023/04/20 05:21:50;;;;;;;5.78;2.90;;;7.50;99.90;;;;;;5037254;28;20516;-91
2023/04/20 05:24:16;;;;;;;5.47;2.63;;;7.60;99.90;;;;;;5036417;28;20894;-92
2023/04/20 05:26:42;;;;;;;7.15;2.88;;;7.50;99.90;;;;;;5019136;28;20128;-93
2023/04/20 05:29:08;;;;;;;4.30;2.47;;;7.60;99.90;;;;;;5021866;28;20033;-93
2023/04/20 05:31:34;;;;;;;6.30;2.80;;;7.50;99.90;;;;;;5023616;28;20450;-93
2023/04/20 05:34:01;;;;;;;4.78;2.45;;;7.60;99.90;;;;;;5035677;28;20044;-92
2023/04/20 05:36:28;;;;;;;4.95;2.47;;;7.60;1.00;;;;;;5022748;28;20475;-92
2023/04/20 05:38:54;;;;;;;6.22;2.90;;;7.60;50.10;;;;;;5021261;28;20783;-93
2023/04/20 05:41:25;;;;;;;4.65;2.97;;;7.60;1.00;;;;;;5020648;28;20048;-91
2023/04/20 05:43:51;;;;;;;4.53;2.25;;;7.70;99.90;;;;;;5035661;28;20041;-91
2023/04/20 05:46:16;;;;;;;6.38;2.80;;;7.70;99.90;;;;;;5017936;28;20144;-91
2023/04/20 05:48:42;;;;;;;4.75;2.67;;;7.70;1.00;;;;;;5019969;28;20044;-92
2023/04/20 05:51:08;;;;;;;4.80;2.58;;;7.60;99.90;;;;;;5018079;28;20068;-91
2023/04/20 05:53:34;;;;;;;5.47;2.80;;;7.70;99.90;;;;;;5021322;28;20037;-92
2023/04/20 05:56:00;;;;;;;5.57;2.80;;;7.70;7.90;;;;;;5018316;28;20033;-92
2023/04/20 05:58:26;;;;;;;5.32;2.50;;;7.70;1.00;;;;;;5019213;28;20068;-91
2023/04/20 06:00:52;;;;;;;4.15;2.53;;;7.70;99.90;;;;;;5018127;28;20512;-92
2023/04/20 06:03:17;;;;;;;4.03;2.40;;;7.70;99.90;;;;;;5040414;28;20032;-92
2023/04/20 06:05:43;;;;;;;4.63;2.75;;;7.70;99.90;;;;;;5024566;28;20036;-93
2023/04/20 06:08:09;;;;;;;5.65;2.70;;;7.70;99.90;;;;;;5033685;28;20040;-93
2023/04/20 06:10:34;;;;;;;5.15;2.88;;;7.70;90.70;;;;;;5025614;28;20136;-92
2023/04/20 06:13:03;;;;;;;6.32;2.60;;;7.70;99.90;;;;;;5036769;28;20132;-92
2023/04/20 06:15:29;;;;;;;5.95;3.00;;;7.70;99.90;;;;;;5020677;28;20044;-91
2023/04/20 06:17:54;;;;;;;8.65;3.03;;;7.70;99.90;;;;;;5018086;28;20037;-92
2023/04/20 06:20:20;;;;;;;5.80;2.70;;;7.60;99.90;;;;;;5021488;28;20097;-93
2023/04/20 06:22:46;;;;;;;4.57;2.92;;;7.60;49.90;;;;;;5019450;28;20048;-92
2023/04/20 06:25:14;;;;;;;6.43;2.90;;;7.50;1.00;;;;;;5023033;28;20132;-92
2023/04/20 06:27:40;;;;;;;6.38;2.80;;;7.50;99.90;;;;;;5024636;28;20120;-90
2023/04/20 06:30:07;;;;;;;5.13;3.10;;;7.60;1.00;;;;;;5021319;28;20052;-90
2023/04/20 06:32:32;;;;;;;5.22;2.55;;;7.50;1.00;;;;;;5035053;28;20361;-90
2023/04/20 06:34:58;;;;;;;5.65;2.58;;;7.50;1.00;;;;;;5023397;28;20097;-92
2023/04/20 06:37:24;;;;;;;11.15;2.95;;;7.50;99.90;;;;;;5032761;28;20396;-91
2023/04/20 06:39:56;;;;;;;5.55;2.80;;;7.50;99.90;;;;;;5054049;28;20195;-92
2023/04/20 06:42:22;;;;;;;5.80;3.20;;;7.60;99.90;;;;;;5021479;28;20041;-92
2023/04/20 06:44:47;;;;;;;4.45;2.70;;;7.60;99.90;;;;;;5018271;28;20524;-92
2023/04/20 06:47:13;;;;;;;5.72;3.08;;;7.70;1.00;;;;;;5019520;28;20065;-91
2023/04/20 06:49:39;;;;;;;3.40;2.28;;;7.60;99.90;;;;;;5033974;28;20052;-92
2023/04/20 06:52:05;;;;;;;6.03;2.88;;;7.60;99.90;;;;;;5037118;28;20452;-93
2023/04/20 06:54:31;;;;;;;7.72;3.20;;;7.50;99.90;;;;;;5021934;28;20052;-92
2023/04/20 06:56:57;;;;;;;5.65;3.10;;;7.50;99.90;;;;;;5016614;28;20061;-92
2023/04/20 06:59:23;;;;;;;5.13;3.22;;;7.40;99.90;;;;;;5019482;28;20041;-91
2023/04/20 07:01:51;;;;;;;4.50;3.13;;;7.40;99.90;;;;;;5036534;28;20203;-91
2023/04/20 07:04:17;;;;;;;4.70;2.80;;;7.30;99.90;;;;;;5052431;28;20041;-90
2023/04/20 07:06:43;;;;;;;4.38;2.80;;;7.30;99.90;;;;;;5040787;28;20481;-92
2023/04/20 07:09:08;;;;;;;5.10;2.97;;;7.30;99.90;;;;;;5036573;28;20113;-91
2023/04/20 07:11:34;;;;;;;4.68;3.22;;;7.30;99.90;;;;;;5020033;28;20052;-90
2023/04/20 07:14:00;;;;;;;4.45;3.00;;;7.20;99.90;;;;;;5035177;28;20049;-91
2023/04/20 07:16:25;;;;;;;5.22;3.00;;;7.20;99.90;;;;;;5035565;28;20044;-92
2023/04/20 07:18:51;;;;;;;4.22;3.00;;;7.20;99.90;;;;;;5024113;28;20033;-90
2023/04/20 07:21:17;;;;;;;5.22;3.25;;;7.10;99.90;;;;;;5023747;28;20045;-90
2023/04/20 07:23:42;;;;;;;7.75;3.22;;;7.00;99.90;;;;;;5040264;28;20045;-91
2023/04/20 07:26:08;;;;;;;6.82;3.38;;;7.00;99.90;;;;;;5024790;28;20064;-91
2023/04/20 07:28:34;;;;;;;7.00;3.53;;;7.00;99.90;;;;;;5026775;28;20044;-91
2023/04/20 07:30:59;;;;;;;5.95;3.42;;;7.00;99.90;;;;;;5036353;28;20051;-89
2023/04/20 07:33:26;;;;;;;6.03;3.20;;;6.90;99.90;;;;;;5020724;28;20034;-93
2023/04/20 07:35:52;;;;;;;6.57;3.22;;;7.10;99.90;;;;;;5026462;28;20044;-92
2023/04/20 07:38:17;;;;;;;10.00;4.00;;;7.10;99.90;;;;;;5027154;28;20067;-90
2023/04/20 07:40:43;;;;;;;5.53;3.45;;;7.30;99.90;;;;;;5020098;28;20053;-90
2023/04/20 07:43:09;;;;;;;5.72;3.40;;;7.40;99.90;;;;;;5017968;28;20183;-91
2023/04/20 07:45:38;;;;;;;5.07;3.33;;;7.50;99.90;;;;;;5022711;28;20049;-92
2023/04/20 07:48:04;;;;;;;8.05;3.45;;;7.50;99.90;;;;;;5022189;28;20139;-90
2023/04/20 07:50:30;;;;;;;5.68;3.50;;;7.50;99.90;;;;;;5024249;28;20033;-91
2023/04/20 07:52:55;;;;;;;5.25;3.70;;;7.50;99.90;;;;;;5024425;28;20048;-91
2023/04/20 07:55:21;;;;;;;8.27;3.67;;;7.50;99.90;;;;;;5022415;28;20106;-92
2023/04/20 07:57:46;;;;;;;8.77;4.00;;;7.50;99.90;;;;;;5035593;28;20492;-90
2023/04/20 08:00:16;;;;;;;6.47;3.45;;;7.60;99.90;;;;;;5038463;28;20209;-91
2023/04/20 08:02:42;;;;;;;7.03;3.40;;;7.70;99.90;;;;;;5020848;28;20037;-92
2023/04/20 08:05:08;;;;;;;4.45;2.92;;;7.70;99.90;;;;;;5040407;28;20033;-93
2023/04/20 08:07:35;;;;;;;5.53;3.47;;;7.60;99.90;;;;;;5041881;28;20056;-90
2023/04/20 08:10:01;;;;;;;4.32;3.45;;;7.70;99.90;;;;;;5025235;28;20044;-92
2023/04/20 08:12:27;;;;;;;6.38;3.47;;;7.70;99.90;;;;;;5024703;28;20068;-91
2023/04/20 08:14:53;;;;;;;4.47;3.33;;;7.70;99.90;;;;;;5025849;28;20037;-90
2023/04/20 08:17:19;;;;;;;6.88;3.30;;;7.90;99.90;;;;;;5037142;28;20138;-91
2023/04/20 08:19:45;;;;;;;6.07;2.97;;;8.00;99.90;;;;;;5021274;28;20535;-90
2023/04/20 08:22:11;;;;;;;4.22;3.42;;;8.10;99.90;;;;;;5024467;28;20518;-90
2023/04/20 08:24:37;;;;;;;4.90;3.28;;;8.20;99.90;;;;;;5043138;28;20121;-91
2023/04/20 08:27:03;;;;;;;6.70;3.60;;;8.00;99.90;;;;;;5022952;28;20199;-91
2023/04/20 08:29:28;;;;;;;5.15;3.33;;;8.20;99.90;;;;;;5021006;28;20528;-91
2023/04/20 08:31:54;;;;;;;6.38;3.63;;;8.20;99.90;;;;;;5015956;28;20068;-93
2023/04/20 08:34:23;;;;;;;9.10;3.38;;;8.20;99.90;;;;;;5018865;28;20041;-92
2023/04/20 08:36:49;;;;;;;5.30;3.78;;;8.30;99.90;;;;;;5032996;28;20042;-91
2023/04/20 08:39:18;;;;;;;5.63;3.47;;;8.70;99.90;;;;;;5022973;28;20037;-92
2023/04/20 08:41:44;;;;;;;5.53;3.95;;;8.70;99.90;;;;;;5036526;28;20040;-90
2023/04/20 08:44:10;;;;;;;5.93;3.60;;;8.70;99.90;;;;;;5017220;28;20104;-91
2023/04/20 08:46:38;;;;;;;8.98;4.22;;;8.50;99.90;;;;;;5039676;28;20136;-91
2023/04/20 08:49:04;;;;;;;8.25;4.05;;;8.20;99.90;;;;;;5034549;28;20140;-91
2023/04/20 08:51:31;;;;;;;5.90;4.35;;;8.30;99.90;;;;;;5021604;28;20547;-93
2023/04/20 08:54:04;;;;;;;7.57;4.00;;;8.10;99.90;;;;;;5040334;28;20128;-92
2023/04/20 08:56:41;;;;;;;5.90;3.85;;;8.10;99.90;;;;;;5014981;28;20045;-92
2023/04/20 08:59:12;;;;;;;7.47;4.07;;;8.10;99.90;;;;;;5022417;28;20044;-94
2023/04/20 09:01:40;;;;;;;5.28;3.70;;;8.30;99.90;;;;;;5021872;28;20045;-92
2023/04/20 09:04:25;;;;;;;4.95;3.90;;;8.50;99.90;;;;;;5020903;28;20071;-92
2023/04/20 09:06:55;;;;;;;7.95;4.38;;;8.70;99.90;;;;;;5028368;28;20041;-93
2023/04/20 09:09:22;;;;;;;5.25;3.75;;;8.90;99.90;;;;;;5038400;28;20337;-93
2023/04/20 09:11:58;;;;;;;7.53;4.30;;;9.10;99.90;;;;;;5024604;28;20575;-90
2023/04/20 09:14:24;;;;;;;7.43;4.53;;;9.20;99.90;;;;;;5034382;28;20447;-93
2023/04/20 09:16:51;;;;;;;8.10;4.13;;;9.30;99.90;;;;;;5022530;28;20036;-92
2023/04/20 09:19:23;;;;;;;6.47;4.45;;;9.40;99.90;;;;;;5020056;28;20033;-92
2023/04/20 09:21:51;;;;;;;5.03;3.75;;;9.50;99.90;;;;;;5036986;28;20045;-93
2023/04/20 09:24:19;;;;;;;9.30;4.38;;;10.10;99.90;;;;;;5025466;28;20033;-92
2023/04/20 09:26:46;;;;;;;6.45;4.05;;;10.40;99.90;;;;;;5019402;28;20045;-92
2023/04/20 09:29:19;;;;;;;7.65;4.30;;;10.40;97.00;;;;;;5020417;28;20064;-94
2023/04/20 09:31:46;;;;;;;6.15;4.40;;;9.80;1.00;;;;;;5025571;28;20552;-92
2023/04/20 09:34:12;;;;;;;5.68;4.43;;;9.70;99.90;;;;;;5019480;28;20040;-94
2023/04/20 09:36:49;;;;;;;6.18;4.30;;;9.70;1.00;;;;;;5022223;28;20045;-93
2023/04/20 09:39:23;;;;;;;7.45;4.25;;;9.50;73.40;;;;;;5023712;28;20944;-92
2023/04/20 09:41:50;;;;;;;6.40;4.10;;;9.50;99.90;;;;;;5036547;28;20051;-92
2023/04/20 09:44:17;;;;;;;8.48;4.35;;;9.70;99.90;;;;;;5040970;28;20428;-93
2023/04/20 09:46:44;;;;;;;6.80;4.75;;;9.70;99.90;;;;;;5020250;28;20513;-93
2023/04/20 09:49:12;;;;;;;7.22;4.38;;;9.70;99.90;;;;;;5034722;28;20043;-92
2023/04/20 09:51:44;;;;;;;6.78;4.82;;;9.50;99.90;;;;;;5034135;28;20037;-93
2023/04/20 09:54:10;;;;;;;8.32;4.70;;;9.70;99.90;;;;;;5021579;28;20033;-92
2023/04/20 09:56:35;;;;;;;9.32;4.88;;;9.60;99.90;;;;;;5021269;28;20080;-94
2023/04/20 09:59:03;;;;;;;7.75;4.70;;;9.70;99.90;;;;;;5023544;28;20072;-95
2023/04/20 10:01:30;;;;;;;7.70;4.75;;;9.40;99.90;;;;;;5036605;28;20155;-93
2023/04/20 10:03:58;;;;;;;6.80;4.50;;;9.50;99.90;;;;;;5033593;28;20076;-94
2023/04/20 10:06:34;;;;;;;8.60;5.10;;;9.50;99.90;;;;;;5026160;28;20037;-95
2023/04/20 10:09:01;;;;;;;7.65;4.43;;;9.30;99.90;;;;;;5023849;28;20037;-92
2023/04/20 10:11:35;;;;;;;9.65;4.53;;;9.30;99.90;;;;;;5019700;28;20144;-94
2023/04/20 10:14:17;;;;;;;7.30;4.47;;;9.20;99.90;;;;;;5037796;28;20535;-92
2023/04/20 10:16:44;;;;;;;6.75;4.47;;;9.10;99.90;;;;;;5034920;28;20041;-92
2023/04/20 10:19:10;;;;;;;10.82;5.03;;;9.00;99.90;;;;;;5039139;28;20037;-93
2023/04/20 10:21:49;;;;;;;9.93;5.25;;;9.10;99.90;;;;;;5020259;28;20036;-93
2023/04/20 10:24:31;;;;;;;7.43;4.80;;;9.00;99.90;;;;;;5038433;28;20481;-91
2023/04/20 10:26:57;;;;;;;7.95;4.80;;;9.00;99.90;;;;;;5020078;28;20592;-92
2023/04/20 10:29:27;;;;;;;7.15;4.80;;;9.20;99.90;;;;;;5017481;28;20033;-94
2023/04/20 10:31:53;;;;;;;5.97;4.82;;;9.00;99.90;;;;;;5038461;28;20508;-93
2023/04/20 10:34:35;;;;;;;8.60;5.05;;;9.00;99.90;;;;;;5042517;28;20531;-93
2023/04/20 10:37:11;;;;;;;8.13;5.22;;;9.30;99.90;;;;;;5041180;28;20033;-93
2023/04/20 10:39:45;;;;;;;7.07;4.43;;;9.40;99.90;;;;;;5036509;28;20080;-93
2023/04/20 10:42:10;;;;;;;7.45;4.75;;;9.30;99.90;;;;;;5022218;28;20114;-94
2023/04/20 10:44:50;;;;;;;7.10;4.28;;;9.20;99.90;;;;;;5018756;28;20120;-93
2023/04/20 10:47:17;;;;;;;7.97;4.80;;;9.20;99.90;;;;;;5021132;28;20052;-93
2023/04/20 10:49:43;;;;;;;8.00;4.88;;;9.30;99.90;;;;;;5022718;28;21635;-93
2023/04/20 10:52:09;;;;;;;5.97;5.07;;;9.20;99.90;;;;;;5019377;28;20048;-94
2023/04/20 10:54:39;;;;;;;8.77;5.00;;;9.50;99.90;;;;;;5038422;28;20045;-93
2023/04/20 10:57:06;;;;;;;7.38;4.85;;;9.80;99.90;;;;;;5023426;28;20067;-93
2023/04/20 10:59:33;;;;;;;8.45;5.53;;;10.20;99.90;;;;;;5057025;28;20094;-94
2023/04/20 11:02:00;;;;;;;8.75;5.85;;;10.20;99.90;;;;;;5023393;28;20173;-92
2023/04/20 11:04:33;;;;;;;8.05;5.10;;;10.20;99.90;;;;;;5026893;28;20358;-93
2023/04/20 11:07:12;;;;;;;7.57;4.57;;;10.10;99.90;;;;;;5039256;28;20107;-94
2023/04/20 11:09:38;;;;;;;6.97;5.40;;;9.90;99.90;;;;;;5023415;28;20037;-94
2023/04/20 11:12:10;;;;;;;7.65;5.30;;;9.80;99.90;;;;;;5039368;28;20412;-93
2023/04/20 11:14:39;;;;;;;9.70;5.55;;;9.60;99.90;;;;;;5024334;28;20037;-93
2023/04/20 11:17:05;;;;;;;7.55;5.40;;;9.50;99.90;;;;;;5024653;28;20134;-93
2023/04/20 11:19:35;;;;;;;7.28;5.32;;;9.50;99.90;;;;;;5024579;28;20065;-91
2023/04/20 11:22:03;;;;;;;7.63;5.38;;;9.50;99.90;;;;;;5023988;28;20502;-93
2023/04/20 11:24:32;;;;;;;8.38;5.50;;;9.30;99.90;;;;;;5017580;28;20598;-93
2023/04/20 11:27:00;;;;;;;7.47;5.05;;;9.40;99.90;;;;;;5022622;28;20124;-93
2023/04/20 11:29:37;;;;;;;7.18;5.70;;;9.30;99.90;;;;;;5022529;28;20032;-92
2023/04/20 11:32:10;;;;;;;7.88;5.75;;;9.40;99.90;;;;;;5023306;28;20443;-94
2023/04/20 11:34:37;;;;;;;12.50;6.15;;;9.40;99.90;;;;;;5023661;28;20040;-93
2023/04/20 11:37:04;;;;;;;9.38;6.68;;;9.50;99.90;;;;;;5044521;28;20499;-93
2023/04/20 11:39:30;;;;;;;9.32;6.10;;;9.40;99.90;;;;;;5026368;28;20145;-94
2023/04/20 11:41:57;;;;;;;7.05;5.57;;;9.50;99.90;;;;;;5023031;28;20064;-94
2023/04/20 11:44:24;;;;;;;9.70;6.65;;;9.60;99.90;;;;;;5024398;28;20091;-95
2023/04/20 11:46:53;;;;;;;11.68;6.28;;;9.70;99.90;;;;;;5038386;28;20052;-93
2023/04/20 11:49:22;;;;;;;10.30;6.78;;;9.80;99.90;;;;;;5037565;28;20495;-93
2023/04/20 11:51:49;;;;;;;10.38;6.38;;;10.10;99.90;;;;;;5045879;28;20123;-94
2023/04/20 11:54:17;;;;;;;11.65;6.60;;;10.20;99.90;;;;;;5022767;28;20087;-92
2023/04/20 11:56:43;;;;;;;8.10;6.63;;;10.30;99.90;;;;;;5037844;28;20041;-93
2023/04/20 11:59:10;;;;;;;10.52;6.78;;;10.40;99.90;;;;;;5040423;28;20112;-93
2023/04/20 12:01:36;;;;;;;8.60;7.15;;;10.60;99.90;;;;;;5041024;28;20136;-94
2023/04/20 12:04:05;;;;;;;7.65;6.57;;;10.90;99.90;;;;;;5023268;28;20044;-94
2023/04/20 12:06:34;;;;;;;10.77;7.28;;;11.00;99.90;;;;;;5020988;28;20103;-94
2023/04/20 12:09:00;;;;;;;9.63;7.15;;;11.30;99.90;;;;;;5021095;28;20064;-93
2023/04/20 12:11:26;;;;;;;10.80;7.75;;;11.60;99.90;;;;;;5023875;28;20040;-94
2023/04/20 12:13:53;;;;;;;10.57;7.82;;;11.30;99.90;;;;;;5020252;28;20049;-93
2023/04/20 12:16:19;;;;;;;10.60;7.97;;;11.30;1.00;;;;;;5022404;28;20033;-93
2023/04/20 12:18:44;;;;;;;10.65;7.57;;;11.90;99.90;;;;;;5038630;28;20102;-94
2023/04/20 12:21:10;;;;;;;12.88;7.97;;;12.20;1.00;;;;;;5037875;28;20067;-93
2023/04/20 12:23:36;;;;;;;9.98;7.75;;;12.80;99.90;;;;;;5026684;28;20037;-92
2023/04/20 12:26:08;;;;;;;13.85;7.90;;;13.00;99.90;;;;;;5023701;28;20091;-93
2023/04/20 12:28:34;;;;;;;12.30;8.27;;;13.50;99.90;;;;;;5024865;28;20041;-93
2023/04/20 12:31:01;;;;;;;9.48;6.97;;;13.70;99.90;;;;;;5041026;28;20037;-93
2023/04/20 12:33:27;;;;;;;12.23;8.38;;;13.10;1.00;;;;;;5020437;28;20044;-94
2023/04/20 12:35:52;;;;;;;10.68;8.15;;;13.00;99.90;;;;;;5025756;28;20033;-94
2023/04/20 12:38:18;;;;;;;10.32;7.60;;;13.30;1.00;;;;;;5038044;28;20048;-93
2023/04/20 12:40:47;;;;;;;9.18;7.50;;;13.50;99.90;;;;;;5021927;28;20041;-94
2023/04/20 12:43:12;;;;;;;11.75;7.85;;;13.40;99.90;;;;;;5022579;28;20432;-93
2023/04/20 12:45:38;;;;;;;8.77;7.88;;;13.30;99.90;;;;;;5023794;28;20447;-93
2023/04/20 12:48:04;;;;;;;10.90;8.00;;;13.10;99.90;;;;;;5039072;28;20056;-92
2023/04/20 12:50:29;;;;;;;11.45;8.15;;;12.90;54.80;;;;;;5040269;28;20620;-93
2023/04/20 12:52:57;;;;;;;9.70;7.47;;;13.70;99.90;;;;;;5021350;28;20275;-93
2023/04/20 12:55:23;;;;;;;11.27;7.82;;;13.30;1.00;;;;;;5038257;28;20106;-92
2023/04/20 12:57:52;;;;;;;8.05;6.80;;;14.20;99.90;;;;;;5021018;28;20045;-95